sensor_id;sensor_type;location;lat;lon;timestamp;temperature;humidity
2565;DHT22;1292;48.020;7.822;2022-10-17T05:46:04;12.80;99.90
2565;DHT22;1292;48.020;7.822;2022-10-17T05:48:31;12.80;99.90
2565;DHT22;1292;48.020;7.822;2022-10-17T05:50:59;12.90;99.90
2565;DHT22;1292;48.020;7.822;2022-10-17T05:53:29;12.90;99.90
2565;DHT22;1292;48.020;7.822;2022-10-17T05:55:57;12.80;99.90
2565;DHT22;1292;48.020;7.822;2022-10-17T05:58:24;12.80;99.90
2565;DHT22;1292;48.020;7.822;2022-10-17T06:00:51;12.80;99.90
2565;DHT22;1292;48.020;7.822;2022-10-17T06:03:19;12.90;99.90
2565;DHT22;1292;48.020;7.822;2022-10-17T06:05:46;12.90;99.90
2565;DHT22;1292;48.020;7.822;2022-10-17T06:08:13;12.90;99.90
2565;DHT22;1292;48.020;7.822;2022-10-17T06:10:40;12.90;99.90
2565;DHT22;1292;48.020;7.822;2022-10-17T06:13:07;12.90;99.90
2565;DHT22;1292;48.020;7.822;2022-10-17T06:15:33;12.80;99.90
2565;DHT22;1292;48.020;7.822;2022-10-17T06:18:00;12.90;99.90
2565;DHT22;1292;48.020;7.822;2022-10-17T06:20:28;12.90;99.90
2565;DHT22;1292;48.020;7.822;2022-10-17T06:22:55;13.00;99.90
2565;DHT22;1292;48.020;7.822;2022-10-17T06:25:22;13.00;99.90
2565;DHT22;1292;48.020;7.822;2022-10-17T06:27:49;12.90;99.90
2565;DHT22;1292;48.020;7.822;2022-10-17T06:30:16;13.00;99.90
2565;DHT22;1292;48.020;7.822;2022-10-17T06:32:43;12.90;99.90
2565;DHT22;1292;48.020;7.822;2022-10-17T06:35:09;13.00;99.90
2565;DHT22;1292;48.020;7.822;2022-10-17T06:37:38;13.10;99.90
2565;DHT22;1292;48.020;7.822;2022-10-17T06:40:06;13.10;99.90
2565;DHT22;1292;48.020;7.822;2022-10-17T06:42:35;13.20;99.90
2565;DHT22;1292;48.020;7.822;2022-10-17T06:45:02;13.20;99.90
2565;DHT22;1292;48.020;7.822;2022-10-17T06:47:28;13.10;99.90
2565;DHT22;1292;48.020;7.822;2022-10-17T06:49:55;13.20;99.90
2565;DHT22;1292;48.020;7.822;2022-10-17T06:52:22;13.30;99.90
2565;DHT22;1292;48.020;7.822;2022-10-17T06:54:50;13.40;99.90
2565;DHT22;1292;48.020;7.822;2022-10-17T06:57:17;13.40;99.90
2565;DHT22;1292;48.020;7.822;2022-10-17T06:59:44;13.50;99.90
2565;DHT22;1292;48.020;7.822;2022-10-17T07:02:11;13.60;99.90
2565;DHT22;1292;48.020;7.822;2022-10-17T07:04:38;13.60;99.90
2565;DHT22;1292;48.020;7.822;2022-10-17T07:07:05;13.80;99.90
2565;DHT22;1292;48.020;7.822;2022-10-17T07:09:32;13.80;99.90
2565;DHT22;1292;48.020;7.822;2022-10-17T07:12:01;13.80;99.90
2565;DHT22;1292;48.020;7.822;2022-10-17T07:14:31;13.90;99.90
2565;DHT22;1292;48.020;7.822;2022-10-17T07:16:58;14.00;99.90
2565;DHT22;1292;48.020;7.822;2022-10-17T07:19:25;14.00;99.90
2565;DHT22;1292;48.020;7.822;2022-10-17T07:21:52;14.10;99.90
2565;DHT22;1292;48.020;7.822;2022-10-17T07:24:19;14.10;99.90
2565;DHT22;1292;48.020;7.822;2022-10-17T07:26:46;14.30;99.90
2565;DHT22;1292;48.020;7.822;2022-10-17T07:29:14;14.40;99.90
2565;DHT22;1292;48.020;7.822;2022-10-17T07:31:41;14.50;99.90
2565;DHT22;1292;48.020;7.822;2022-10-17T07:34:10;14.60;99.90
2565;DHT22;1292;48.020;7.822;2022-10-17T07:36:36;14.70;99.90
2565;DHT22;1292;48.020;7.822;2022-10-17T07:39:03;14.80;99.90
2565;DHT22;1292;48.020;7.822;2022-10-17T07:41:30;14.90;99.90
2565;DHT22;1292;48.020;7.822;2022-10-17T07:43:57;15.00;99.90
2565;DHT22;1292;48.020;7.822;2022-10-17T07:46:25;15.10;99.90
2565;DHT22;1292;48.020;7.822;2022-10-17T07:48:52;15.20;99.90
2565;DHT22;1292;48.020;7.822;2022-10-17T07:51:19;15.30;99.90
2565;DHT22;1292;48.020;7.822;2022-10-17T07:53:46;15.40;99.90
2565;DHT22;1292;48.020;7.822;2022-10-17T07:56:13;15.50;99.90
2565;DHT22;1292;48.020;7.822;2022-10-17T07:58:40;15.60;99.90
2565;DHT22;1292;48.020;7.822;2022-10-17T08:01:09;15.70;99.90
2565;DHT22;1292;48.020;7.822;2022-10-17T08:03:40;15.80;99.90
2565;DHT22;1292;48.020;7.822;2022-10-17T08:06:07;15.90;99.90
2565;DHT22;1292;48.020;7.822;2022-10-17T08:08:34;15.90;99.90
2565;DHT22;1292;48.020;7.822;2022-10-17T08:11:03;16.00;99.90
2565;DHT22;1292;48.020;7.822;2022-10-17T08:13:31;16.10;99.90
2565;DHT22;1292;48.020;7.822;2022-10-17T08:15:59;16.20;99.90
2565;DHT22;1292;48.020;7.822;2022-10-17T08:18:26;16.30;99.90
2565;DHT22;1292;48.020;7.822;2022-10-17T08:20:57;16.30;99.90
2565;DHT22;1292;48.020;7.822;2022-10-17T08:23:24;16.40;99.90
2565;DHT22;1292;48.020;7.822;2022-10-17T08:25:51;16.50;99.90
2565;DHT22;1292;48.020;7.822;2022-10-17T08:28:18;16.60;99.90
2565;DHT22;1292;48.020;7.822;2022-10-17T08:30:45;16.60;99.90
2565;DHT22;1292;48.020;7.822;2022-10-17T08:33:12;16.70;99.90
2565;DHT22;1292;48.020;7.822;2022-10-17T08:35:39;16.80;99.90
2565;DHT22;1292;48.020;7.822;2022-10-17T08:38:07;16.90;99.90
2565;DHT22;1292;48.020;7.822;2022-10-17T08:40:34;17.00;99.90
2565;DHT22;1292;48.020;7.822;2022-10-17T08:43:15;17.10;99.90
2565;DHT22;1292;48.020;7.822;2022-10-17T08:45:50;17.20;99.90
2565;DHT22;1292;48.020;7.822;2022-10-17T08:48:20;17.20;99.90
2565;DHT22;1292;48.020;7.822;2022-10-17T08:50:51;17.30;99.90
2565;DHT22;1292;48.020;7.822;2022-10-17T08:53:24;17.40;99.90
2565;DHT22;1292;48.020;7.822;2022-10-17T08:55:54;17.50;99.90
2565;DHT22;1292;48.020;7.822;2022-10-17T08:58:22;17.60;99.90
2565;DHT22;1292;48.020;7.822;2022-10-17T09:00:59;17.60;99.90
2565;DHT22;1292;48.020;7.822;2022-10-17T09:03:37;17.70;99.90
2565;DHT22;1292;48.020;7.822;2022-10-17T09:06:14;17.70;99.90
2565;DHT22;1292;48.020;7.822;2022-10-17T09:08:52;17.80;99.90
2565;DHT22;1292;48.020;7.822;2022-10-17T09:11:33;17.80;99.90
2565;DHT22;1292;48.020;7.822;2022-10-17T09:14:13;17.90;99.90
2565;DHT22;1292;48.020;7.822;2022-10-17T09:16:53;18.00;99.90
2565;DHT22;1292;48.020;7.822;2022-10-17T09:19:24;18.10;99.90
2565;DHT22;1292;48.020;7.822;2022-10-17T09:21:56;18.10;99.90
2565;DHT22;1292;48.020;7.822;2022-10-17T09:24:36;18.20;99.90
2565;DHT22;1292;48.020;7.822;2022-10-17T09:27:05;18.30;99.90
2565;DHT22;1292;48.020;7.822;2022-10-17T09:29:39;18.40;99.90
2565;DHT22;1292;48.020;7.822;2022-10-17T09:32:12;18.60;99.90
2565;DHT22;1292;48.020;7.822;2022-10-17T09:34:40;18.60;99.90
2565;DHT22;1292;48.020;7.822;2022-10-17T09:37:11;18.70;99.90
2565;DHT22;1292;48.020;7.822;2022-10-17T09:39:41;18.70;99.90
2565;DHT22;1292;48.020;7.822;2022-10-17T09:42:11;18.90;99.90
2565;DHT22;1292;48.020;7.822;2022-10-17T09:44:46;19.00;99.90
2565;DHT22;1292;48.020;7.822;2022-10-17T09:47:24;19.00;99.90
2565;DHT22;1292;48.020;7.822;2022-10-17T09:49:53;19.10;99.90
2565;DHT22;1292;48.020;7.822;2022-10-17T09:52:23;19.20;99.90
2565;DHT22;1292;48.020;7.822;2022-10-17T09:54:54;19.30;99.90
2565;DHT22;1292;48.020;7.822;2022-10-17T09:57:23;19.40;99.90
2565;DHT22;1292;48.020;7.822;2022-10-17T09:59:56;19.50;99.90
2565;DHT22;1292;48.020;7.822;2022-10-17T10:02:25;19.60;99.90
2565;DHT22;1292;48.020;7.822;2022-10-17T10:05:00;19.70;99.90
2565;DHT22;1292;48.020;7.822;2022-10-17T10:07:29;19.80;99.90
2565;DHT22;1292;48.020;7.822;2022-10-17T10:09:59;19.90;99.90
2565;DHT22;1292;48.020;7.822;2022-10-17T10:12:30;20.00;99.90
2565;DHT22;1292;48.020;7.822;2022-10-17T10:14:57;20.10;99.90
2565;DHT22;1292;48.020;7.822;2022-10-17T10:17:33;20.20;99.90
2565;DHT22;1292;48.020;7.822;2022-10-17T10:20:01;20.30;99.90
2565;DHT22;1292;48.020;7.822;2022-10-17T10:22:29;20.40;99.90
2565;DHT22;1292;48.020;7.822;2022-10-17T10:25:12;20.50;99.90
2565;DHT22;1292;48.020;7.822;2022-10-17T10:27:41;20.60;99.90
2565;DHT22;1292;48.020;7.822;2022-10-17T10:30:16;20.60;99.90
2565;DHT22;1292;48.020;7.822;2022-10-17T10:32:46;20.60;99.90
2565;DHT22;1292;48.020;7.822;2022-10-17T10:35:20;20.70;99.90
2565;DHT22;1292;48.020;7.822;2022-10-17T10:37:49;20.80;99.90
2565;DHT22;1292;48.020;7.822;2022-10-17T10:40:20;20.90;99.90
2565;DHT22;1292;48.020;7.822;2022-10-17T10:42:50;21.00;99.90
2565;DHT22;1292;48.020;7.822;2022-10-17T10:45:18;21.10;99.90
2565;DHT22;1292;48.020;7.822;2022-10-17T10:47:50;21.20;99.90
2565;DHT22;1292;48.020;7.822;2022-10-17T10:50:25;21.40;99.90
2565;DHT22;1292;48.020;7.822;2022-10-17T10:53:01;21.50;99.90
2565;DHT22;1292;48.020;7.822;2022-10-17T10:55:34;21.60;99.90
2565;DHT22;1292;48.020;7.822;2022-10-17T10:58:19;21.60;99.90
2565;DHT22;1292;48.020;7.822;2022-10-17T11:00:48;21.70;99.90
2565;DHT22;1292;48.020;7.822;2022-10-17T11:03:18;21.80;99.90
2565;DHT22;1292;48.020;7.822;2022-10-17T11:05:50;21.80;99.90
2565;DHT22;1292;48.020;7.822;2022-10-17T11:08:24;21.90;99.90
2565;DHT22;1292;48.020;7.822;2022-10-17T11:11:02;22.00;99.90
2565;DHT22;1292;48.020;7.822;2022-10-17T11:13:35;22.20;99.90
2565;DHT22;1292;48.020;7.822;2022-10-17T11:16:20;22.30;99.90
2565;DHT22;1292;48.020;7.822;2022-10-17T11:18:51;22.30;99.90
2565;DHT22;1292;48.020;7.822;2022-10-17T11:21:27;22.30;99.90
2565;DHT22;1292;48.020;7.822;2022-10-17T11:24:02;22.40;99.90
2565;DHT22;1292;48.020;7.822;2022-10-17T11:26:37;22.40;99.90
2565;DHT22;1292;48.020;7.822;2022-10-17T11:29:05;22.50;99.90
2565;DHT22;1292;48.020;7.822;2022-10-17T11:31:36;22.60;99.90
2565;DHT22;1292;48.020;7.822;2022-10-17T11:34:08;22.60;99.90
2565;DHT22;1292;48.020;7.822;2022-10-17T11:36:39;22.70;99.90
2565;DHT22;1292;48.020;7.822;2022-10-17T11:39:13;22.80;99.90
2565;DHT22;1292;48.020;7.822;2022-10-17T11:41:46;22.80;99.90
2565;DHT22;1292;48.020;7.822;2022-10-17T11:44:19;22.80;99.90
2565;DHT22;1292;48.020;7.822;2022-10-17T11:46:53;22.90;99.90
2565;DHT22;1292;48.020;7.822;2022-10-17T11:49:23;23.00;99.90
2565;DHT22;1292;48.020;7.822;2022-10-17T11:54:42;23.10;99.90
2565;DHT22;1292;48.020;7.822;2022-10-17T11:57:29;23.10;99.90
2565;DHT22;1292;48.020;7.822;2022-10-17T12:00:21;23.20;99.90
2565;DHT22;1292;48.020;7.822;2022-10-17T12:02:56;23.30;99.90
2565;DHT22;1292;48.020;7.822;2022-10-17T12:05:32;23.30;99.90
2565;DHT22;1292;48.020;7.822;2022-10-17T12:08:08;23.30;99.90
2565;DHT22;1292;48.020;7.822;2022-10-17T12:10:44;23.40;99.90
2565;DHT22;1292;48.020;7.822;2022-10-17T12:13:47;23.50;99.90
2565;DHT22;1292;48.020;7.822;2022-10-17T12:16:43;23.50;99.90
2565;DHT22;1292;48.020;7.822;2022-10-17T12:19:25;23.60;99.90
2565;DHT22;1292;48.020;7.822;2022-10-17T12:21:57;23.60;99.90
2565;DHT22;1292;48.020;7.822;2022-10-17T12:24:39;23.60;99.90
2565;DHT22;1292;48.020;7.822;2022-10-17T12:27:39;23.60;99.90
2565;DHT22;1292;48.020;7.822;2022-10-17T12:30:21;23.60;99.90
2565;DHT22;1292;48.020;7.822;2022-10-17T12:33:04;23.60;99.90
2565;DHT22;1292;48.020;7.822;2022-10-17T12:35:33;23.70;99.90
2565;DHT22;1292;48.020;7.822;2022-10-17T12:41:00;23.80;99.90
2565;DHT22;1292;48.020;7.822;2022-10-17T12:43:54;23.80;99.90
2565;DHT22;1292;48.020;7.822;2022-10-17T12:46:47;23.80;99.90
2565;DHT22;1292;48.020;7.822;2022-10-17T12:52:19;23.80;99.90
2565;DHT22;1292;48.020;7.822;2022-10-17T12:54:53;23.80;99.90
2565;DHT22;1292;48.020;7.822;2022-10-17T12:57:23;23.90;99.90
2565;DHT22;1292;48.020;7.822;2022-10-17T12:59:52;23.90;99.90
2565;DHT22;1292;48.020;7.822;2022-10-17T13:02:23;23.80;99.90
2565;DHT22;1292;48.020;7.822;2022-10-17T13:05:03;23.90;99.90
2565;DHT22;1292;48.020;7.822;2022-10-17T13:07:33;23.80;99.90
2565;DHT22;1292;48.020;7.822;2022-10-17T13:10:00;23.80;99.90
2565;DHT22;1292;48.020;7.822;2022-10-17T13:12:32;23.80;99.90
2565;DHT22;1292;48.020;7.822;2022-10-17T13:15:03;23.80;99.90
2565;DHT22;1292;48.020;7.822;2022-10-17T13:17:33;23.90;99.90
2565;DHT22;1292;48.020;7.822;2022-10-17T13:19:59;23.90;99.90
2565;DHT22;1292;48.020;7.822;2022-10-17T13:22:29;23.80;99.90
2565;DHT22;1292;48.020;7.822;2022-10-17T13:25:07;23.80;99.90
2565;DHT22;1292;48.020;7.822;2022-10-17T13:27:35;23.80;99.90
2565;DHT22;1292;48.020;7.822;2022-10-17T13:30:22;23.80;99.90
2565;DHT22;1292;48.020;7.822;2022-10-17T13:32:50;23.90;99.90
2565;DHT22;1292;48.020;7.822;2022-10-17T13:35:23;23.90;99.90
2565;DHT22;1292;48.020;7.822;2022-10-17T13:37:51;23.90;99.90
2565;DHT22;1292;48.020;7.822;2022-10-17T13:40:22;23.90;99.90
2565;DHT22;1292;48.020;7.822;2022-10-17T13:42:50;23.90;99.90
2565;DHT22;1292;48.020;7.822;2022-10-17T13:45:21;23.90;99.90
2565;DHT22;1292;48.020;7.822;2022-10-17T13:47:50;23.90;99.90
2565;DHT22;1292;48.020;7.822;2022-10-17T13:50:22;23.90;99.90
2565;DHT22;1292;48.020;7.822;2022-10-17T13:53:06;23.90;99.90
2565;DHT22;1292;48.020;7.822;2022-10-17T13:55:33;23.80;99.90
2565;DHT22;1292;48.020;7.822;2022-10-17T13:58:09;23.80;99.90
2565;DHT22;1292;48.020;7.822;2022-10-17T14:00:40;23.80;99.90
2565;DHT22;1292;48.020;7.822;2022-10-17T14:03:08;23.80;99.90
2565;DHT22;1292;48.020;7.822;2022-10-17T14:05:35;23.70;99.90
2565;DHT22;1292;48.020;7.822;2022-10-17T14:08:22;23.70;99.90
2565;DHT22;1292;48.020;7.822;2022-10-17T14:10:49;23.70;99.90
2565;DHT22;1292;48.020;7.822;2022-10-17T14:13:20;23.70;99.90
2565;DHT22;1292;48.020;7.822;2022-10-17T14:15:48;23.60;99.90
2565;DHT22;1292;48.020;7.822;2022-10-17T14:18:19;23.60;99.90
2565;DHT22;1292;48.020;7.822;2022-10-17T14:20:48;23.50;99.90
2565;DHT22;1292;48.020;7.822;2022-10-17T14:23:32;23.50;99.90
2565;DHT22;1292;48.020;7.822;2022-10-17T14:26:09;23.50;99.90
2565;DHT22;1292;48.020;7.822;2022-10-17T14:28:36;23.50;99.90
2565;DHT22;1292;48.020;7.822;2022-10-17T14:31:16;23.40;99.90
2565;DHT22;1292;48.020;7.822;2022-10-17T14:33:47;23.40;99.90
2565;DHT22;1292;48.020;7.822;2022-10-17T14:36:14;23.40;99.90
2565;DHT22;1292;48.020;7.822;2022-10-17T14:38:44;23.40;99.90
2565;DHT22;1292;48.020;7.822;2022-10-17T14:41:14;23.40;99.90
2565;DHT22;1292;48.020;7.822;2022-10-17T14:43:44;23.40;99.90
2565;DHT22;1292;48.020;7.822;2022-10-17T14:46:17;23.40;99.90
2565;DHT22;1292;48.020;7.822;2022-10-17T14:48:51;23.40;99.90
2565;DHT22;1292;48.020;7.822;2022-10-17T14:51:19;23.40;99.90
2565;DHT22;1292;48.020;7.822;2022-10-17T14:54:00;23.30;99.90
2565;DHT22;1292;48.020;7.822;2022-10-17T14:56:35;23.30;99.90
2565;DHT22;1292;48.020;7.822;2022-10-17T14:59:02;23.30;99.90
2565;DHT22;1292;48.020;7.822;2022-10-17T15:01:31;23.20;99.90
2565;DHT22;1292;48.020;7.822;2022-10-17T15:03:59;23.20;99.90
2565;DHT22;1292;48.020;7.822;2022-10-17T15:06:28;23.20;99.90
2565;DHT22;1292;48.020;7.822;2022-10-17T15:08:55;23.20;99.90
2565;DHT22;1292;48.020;7.822;2022-10-17T15:11:22;23.20;99.90
2565;DHT22;1292;48.020;7.822;2022-10-17T15:13:49;23.20;99.90
2565;DHT22;1292;48.020;7.822;2022-10-17T15:16:18;23.10;99.90
2565;DHT22;1292;48.020;7.822;2022-10-17T15:18:46;23.10;99.90
2565;DHT22;1292;48.020;7.822;2022-10-17T15:21:15;23.10;99.90
2565;DHT22;1292;48.020;7.822;2022-10-17T15:23:43;23.10;99.90
2565;DHT22;1292;48.020;7.822;2022-10-17T15:26:14;23.00;99.90
2565;DHT22;1292;48.020;7.822;2022-10-17T15:28:41;23.00;99.90
2565;DHT22;1292;48.020;7.822;2022-10-17T15:31:10;23.00;99.90
2565;DHT22;1292;48.020;7.822;2022-10-17T15:33:37;23.00;99.90
2565;DHT22;1292;48.020;7.822;2022-10-17T15:36:14;23.00;99.90
2565;DHT22;1292;48.020;7.822;2022-10-17T15:38:42;22.90;99.90
2565;DHT22;1292;48.020;7.822;2022-10-17T15:41:10;22.90;99.90
2565;DHT22;1292;48.020;7.822;2022-10-17T15:43:37;22.80;99.90
2565;DHT22;1292;48.020;7.822;2022-10-17T15:46:09;22.80;99.90
2565;DHT22;1292;48.020;7.822;2022-10-17T15:48:37;22.70;99.90
2565;DHT22;1292;48.020;7.822;2022-10-17T15:51:04;22.70;99.90
2565;DHT22;1292;48.020;7.822;2022-10-17T15:53:32;22.60;99.90
2565;DHT22;1292;48.020;7.822;2022-10-17T15:56:00;22.60;99.90
2565;DHT22;1292;48.020;7.822;2022-10-17T15:58:33;22.50;99.90
2565;DHT22;1292;48.020;7.822;2022-10-17T16:01:00;22.40;99.90
2565;DHT22;1292;48.020;7.822;2022-10-17T16:03:27;22.40;99.90
2565;DHT22;1292;48.020;7.822;2022-10-17T16:05:55;22.40;99.90
2565;DHT22;1292;48.020;7.822;2022-10-17T16:08:22;22.30;99.90
2565;DHT22;1292;48.020;7.822;2022-10-17T16:10:51;22.30;99.90
2565;DHT22;1292;48.020;7.822;2022-10-17T16:13:20;22.20;99.90
2565;DHT22;1292;48.020;7.822;2022-10-17T16:15:47;22.20;99.90
2565;DHT22;1292;48.020;7.822;2022-10-17T16:18:14;22.10;99.90
2565;DHT22;1292;48.020;7.822;2022-10-17T16:20:41;22.10;99.90
2565;DHT22;1292;48.020;7.822;2022-10-17T16:23:10;22.10;99.90
2565;DHT22;1292;48.020;7.822;2022-10-17T16:25:37;22.00;99.90
2565;DHT22;1292;48.020;7.822;2022-10-17T16:28:06;21.90;99.90
2565;DHT22;1292;48.020;7.822;2022-10-17T16:30:40;21.90;99.90
2565;DHT22;1292;48.020;7.822;2022-10-17T16:33:10;21.80;99.90
2565;DHT22;1292;48.020;7.822;2022-10-17T16:35:38;21.70;99.90
2565;DHT22;1292;48.020;7.822;2022-10-17T16:38:05;21.60;99.90
2565;DHT22;1292;48.020;7.822;2022-10-17T16:40:33;21.50;99.90
2565;DHT22;1292;48.020;7.822;2022-10-17T16:43:00;21.50;99.90
2565;DHT22;1292;48.020;7.822;2022-10-17T16:45:28;21.40;99.90
2565;DHT22;1292;48.020;7.822;2022-10-17T16:47:55;21.40;99.90
2565;DHT22;1292;48.020;7.822;2022-10-17T16:50:22;21.30;99.90
2565;DHT22;1292;48.020;7.822;2022-10-17T16:52:49;21.30;99.90
2565;DHT22;1292;48.020;7.822;2022-10-17T16:55:17;21.20;99.90
2565;DHT22;1292;48.020;7.822;2022-10-17T16:57:44;21.20;99.90
2565;DHT22;1292;48.020;7.822;2022-10-17T17:00:14;21.10;99.90
2565;DHT22;1292;48.020;7.822;2022-10-17T17:02:42;21.00;99.90
2565;DHT22;1292;48.020;7.822;2022-10-17T17:05:10;20.90;99.90
2565;DHT22;1292;48.020;7.822;2022-10-17T17:07:37;20.90;99.90
2565;DHT22;1292;48.020;7.822;2022-10-17T17:10:05;20.80;99.90
2565;DHT22;1292;48.020;7.822;2022-10-17T17:12:32;20.80;99.90
2565;DHT22;1292;48.020;7.822;2022-10-17T17:15:00;20.70;99.90
2565;DHT22;1292;48.020;7.822;2022-10-17T17:17:27;20.70;99.90
2565;DHT22;1292;48.020;7.822;2022-10-17T17:19:55;20.70;99.90
2565;DHT22;1292;48.020;7.822;2022-10-17T17:22:22;20.60;99.90
2565;DHT22;1292;48.020;7.822;2022-10-17T17:24:49;20.60;99.90
2565;DHT22;1292;48.020;7.822;2022-10-17T17:27:16;20.50;99.90
2565;DHT22;1292;48.020;7.822;2022-10-17T17:29:43;20.50;99.90
2565;DHT22;1292;48.020;7.822;2022-10-17T17:32:10;20.40;99.90
2565;DHT22;1292;48.020;7.822;2022-10-17T17:34:38;20.40;99.90
2565;DHT22;1292;48.020;7.822;2022-10-17T17:37:07;20.40;99.90
2565;DHT22;1292;48.020;7.822;2022-10-17T17:39:34;20.30;99.90
2565;DHT22;1292;48.020;7.822;2022-10-17T17:42:01;20.30;99.90
2565;DHT22;1292;48.020;7.822;2022-10-17T17:44:28;20.20;99.90
2565;DHT22;1292;48.020;7.822;2022-10-17T17:46:56;20.20;99.90
2565;DHT22;1292;48.020;7.822;2022-10-17T17:49:23;20.10;99.90
2565;DHT22;1292;48.020;7.822;2022-10-17T17:51:50;20.00;99.90
2565;DHT22;1292;48.020;7.822;2022-10-17T17:54:18;19.90;99.90
2565;DHT22;1292;48.020;7.822;2022-10-17T17:56:45;19.80;99.90
2565;DHT22;1292;48.020;7.822;2022-10-17T17:59:12;19.70;99.90
2565;DHT22;1292;48.020;7.822;2022-10-17T18:01:39;19.60;99.90
2565;DHT22;1292;48.020;7.822;2022-10-17T18:04:07;19.50;99.90
2565;DHT22;1292;48.020;7.822;2022-10-17T18:06:34;19.50;99.90
2565;DHT22;1292;48.020;7.822;2022-10-17T18:09:02;19.40;99.90
2565;DHT22;1292;48.020;7.822;2022-10-17T18:11:31;19.30;99.90
2565;DHT22;1292;48.020;7.822;2022-10-17T18:14:00;19.30;99.90
2565;DHT22;1292;48.020;7.822;2022-10-17T18:16:28;19.20;99.90
2565;DHT22;1292;48.020;7.822;2022-10-17T18:18:56;19.20;99.90
2565;DHT22;1292;48.020;7.822;2022-10-17T18:21:22;19.10;99.90
2565;DHT22;1292;48.020;7.822;2022-10-17T18:23:49;19.00;99.90
2565;DHT22;1292;48.020;7.822;2022-10-17T18:26:17;19.00;99.90
2565;DHT22;1292;48.020;7.822;2022-10-17T18:28:45;18.90;99.90
2565;DHT22;1292;48.020;7.822;2022-10-17T18:31:15;18.90;99.90
2565;DHT22;1292;48.020;7.822;2022-10-17T18:33:44;18.80;99.90
2565;DHT22;1292;48.020;7.822;2022-10-17T18:36:13;18.80;99.90
2565;DHT22;1292;48.020;7.822;2022-10-17T18:38:40;18.70;99.90
2565;DHT22;1292;48.020;7.822;2022-10-17T18:41:09;18.70;99.90
2565;DHT22;1292;48.020;7.822;2022-10-17T18:43:38;18.60;99.90
2565;DHT22;1292;48.020;7.822;2022-10-17T18:46:07;18.50;99.90
2565;DHT22;1292;48.020;7.822;2022-10-17T18:48:34;18.50;99.90
2565;DHT22;1292;48.020;7.822;2022-10-17T18:51:04;18.40;99.90
2565;DHT22;1292;48.020;7.822;2022-10-17T18:53:31;18.40;99.90
2565;DHT22;1292;48.020;7.822;2022-10-17T18:55:58;18.30;99.90
2565;DHT22;1292;48.020;7.822;2022-10-17T18:58:25;18.30;99.90
2565;DHT22;1292;48.020;7.822;2022-10-17T19:00:52;18.30;99.90
2565;DHT22;1292;48.020;7.822;2022-10-17T19:03:20;18.10;99.90
2565;DHT22;1292;48.020;7.822;2022-10-17T19:05:47;18.10;99.90
2565;DHT22;1292;48.020;7.822;2022-10-17T19:08:14;18.10;99.90
2565;DHT22;1292;48.020;7.822;2022-10-17T19:10:41;18.10;99.90
2565;DHT22;1292;48.020;7.822;2022-10-17T19:13:09;18.00;99.90
2565;DHT22;1292;48.020;7.822;2022-10-17T19:15:36;18.00;99.90
2565;DHT22;1292;48.020;7.822;2022-10-17T19:18:03;18.00;99.90
2565;DHT22;1292;48.020;7.822;2022-10-17T19:20:31;17.90;99.90
2565;DHT22;1292;48.020;7.822;2022-10-17T19:22:58;17.90;99.90
2565;DHT22;1292;48.020;7.822;2022-10-17T19:25:25;17.80;99.90
2565;DHT22;1292;48.020;7.822;2022-10-17T19:27:55;17.80;99.90
2565;DHT22;1292;48.020;7.822;2022-10-17T19:30:22;17.70;99.90
2565;DHT22;1292;48.020;7.822;2022-10-17T19:32:49;17.70;99.90
2565;DHT22;1292;48.020;7.822;2022-10-17T19:35:15;17.70;99.90
2565;DHT22;1292;48.020;7.822;2022-10-17T19:37:44;17.60;99.90
2565;DHT22;1292;48.020;7.822;2022-10-17T19:40:11;17.60;99.90
2565;DHT22;1292;48.020;7.822;2022-10-17T19:42:38;17.60;99.90
2565;DHT22;1292;48.020;7.822;2022-10-17T19:45:07;17.60;99.90
2565;DHT22;1292;48.020;7.822;2022-10-17T19:47:34;17.60;99.90
2565;DHT22;1292;48.020;7.822;2022-10-17T19:50:01;17.50;99.90
2565;DHT22;1292;48.020;7.822;2022-10-17T19:52:29;17.50;99.90
2565;DHT22;1292;48.020;7.822;2022-10-17T19:54:57;17.50;99.90
2565;DHT22;1292;48.020;7.822;2022-10-17T19:57:24;17.40;99.90
2565;DHT22;1292;48.020;7.822;2022-10-17T19:59:50;17.40;99.90
2565;DHT22;1292;48.020;7.822;2022-10-17T20:02:17;17.40;99.90
2565;DHT22;1292;48.020;7.822;2022-10-17T20:04:44;17.40;99.90
2565;DHT22;1292;48.020;7.822;2022-10-17T20:07:11;17.40;99.90
2565;DHT22;1292;48.020;7.822;2022-10-17T20:09:38;17.40;99.90
2565;DHT22;1292;48.020;7.822;2022-10-17T20:12:06;17.40;99.90
2565;DHT22;1292;48.020;7.822;2022-10-17T20:14:33;17.40;99.90
2565;DHT22;1292;48.020;7.822;2022-10-17T20:17:00;17.40;99.90
2565;DHT22;1292;48.020;7.822;2022-10-17T20:19:27;17.30;99.90
2565;DHT22;1292;48.020;7.822;2022-10-17T20:21:53;17.30;99.90
2565;DHT22;1292;48.020;7.822;2022-10-17T20:24:20;17.30;99.90
2565;DHT22;1292;48.020;7.822;2022-10-17T20:26:47;17.30;99.90
2565;DHT22;1292;48.020;7.822;2022-10-17T20:29:18;17.30;99.90
2565;DHT22;1292;48.020;7.822;2022-10-17T20:31:46;17.30;99.90
2565;DHT22;1292;48.020;7.822;2022-10-17T20:34:14;17.30;99.90
2565;DHT22;1292;48.020;7.822;2022-10-17T20:36:42;17.30;99.90
2565;DHT22;1292;48.020;7.822;2022-10-17T20:39:10;17.20;99.90
2565;DHT22;1292;48.020;7.822;2022-10-17T20:41:38;17.30;99.90
2565;DHT22;1292;48.020;7.822;2022-10-17T20:44:06;17.20;99.90
2565;DHT22;1292;48.020;7.822;2022-10-17T20:46:34;17.30;99.90
2565;DHT22;1292;48.020;7.822;2022-10-17T20:49:01;17.20;99.90
2565;DHT22;1292;48.020;7.822;2022-10-17T20:51:29;17.20;99.90
2565;DHT22;1292;48.020;7.822;2022-10-17T20:53:56;17.20;99.90
2565;DHT22;1292;48.020;7.822;2022-10-17T20:56:24;16.90;99.90
2565;DHT22;1292;48.020;7.822;2022-10-17T20:58:53;16.80;99.90
